^^
B2 Weather Station Historical Data
Daily Summary for December 4, 2017 Units:  English    Metric   Both
« Previous Day
Next Day »
Daily Weekly Monthly Yearly Custom
  High: Low: Average:
Temperature: 63.6 °F 46.9 °F 56.8 °F
Dew Point: 56.1 °F 37.6 °F 46.3 °F
Humidity: 88 % 59 % 68 %
Wind Speed: 33.4 mph 4.6 mph 17.5 mph
Wind Gust: 33.4 mph - -
Wind:- - South
Pressure: 30.02 in 29.56 in -
Precipitation: 0.03 in    
Historical Graphs
 
 
Tabular Data for December 4, 2017
Time Temperature Dew Point Pressure Wind Wind Speed Wind Gust Humidity Rainfall Rate (Hourly) solar Conditions
00:01 48.4 °F 37.6 °F 30.02 in SSE 12.7 mph 12.7 mph 66 % 0.00 in 0.0 W/m2 BKN
00:06 48.5 °F 38.0 °F 30.02 in SSE 10.4 mph 10.4 mph 67 % 0.00 in 0.0 W/m2 BKN
00:11 48.6 °F 37.7 °F 30.02 in SSE 11.5 mph 11.5 mph 66 % 0.00 in 0.0 W/m2 BKN
00:16 48.7 °F 37.8 °F 30.02 in SSE 11.5 mph 11.5 mph 66 % 0.00 in 0.0 W/m2 BKN
00:21 48.8 °F 37.9 °F 30.02 in SSE 11.5 mph 11.5 mph 66 % 0.00 in 0.0 W/m2 BKN
00:26 48.8 °F 37.9 °F 30.01 in SSE 11.0 mph 11.0 mph 66 % 0.00 in 0.0 W/m2 BKN
00:31 48.8 °F 37.9 °F 30.01 in SSE 12.7 mph 12.7 mph 66 % 0.00 in 0.0 W/m2 OVC
00:36 48.9 °F 38.0 °F 30.01 in SSE 15.0 mph 15.0 mph 66 % 0.00 in 0.0 W/m2 OVC
00:41 49.0 °F 38.1 °F 30.00 in SSE 11.5 mph 11.5 mph 66 % 0.00 in 0.0 W/m2 OVC
00:46 48.9 °F 38.0 °F 30.00 in SSE 11.0 mph 11.0 mph 66 % 0.00 in 0.0 W/m2 OVC
00:51 48.9 °F 38.0 °F 30.01 in SSE 9.0 mph 9.0 mph 66 % 0.00 in 0.0 W/m2 OVC
00:56 48.9 °F 38.0 °F 30.01 in SSE 11.5 mph 11.5 mph 66 % 0.00 in 0.0 W/m2 OVC
01:01 49.0 °F 38.1 °F 30.01 in SSE 9.2 mph 9.2 mph 66 % 0.00 in 0.0 W/m2 OVC
01:06 49.1 °F 38.2 °F 30.01 in SSE 11.5 mph 11.5 mph 66 % 0.00 in 0.0 W/m2 OVC
01:11 49.2 °F 38.3 °F 30.02 in SSE 9.2 mph 9.2 mph 66 % 0.00 in 0.0 W/m2 OVC
01:16 49.1 °F 38.2 °F 30.01 in SSE 8.1 mph 8.1 mph 66 % 0.00 in 0.0 W/m2 OVC
01:21 48.9 °F 38.4 °F 30.02 in South 8.1 mph 8.1 mph 67 % 0.00 in 0.0 W/m2 OVC
01:26 48.8 °F 38.3 °F 30.02 in SSE 6.9 mph 6.9 mph 67 % 0.00 in 0.0 W/m2 OVC
01:31 48.7 °F 38.6 °F 30.02 in South 5.8 mph 5.8 mph 68 % 0.00 in 0.0 W/m2 OVC
01:36 48.7 °F 38.6 °F 30.02 in South 6.0 mph 6.0 mph 68 % 0.00 in 0.0 W/m2 OVC
01:41 48.7 °F 38.6 °F 30.01 in South 4.6 mph 4.6 mph 68 % 0.00 in 0.0 W/m2 OVC
01:46 48.7 °F 39.0 °F 30.01 in South 6.0 mph 6.0 mph 69 % 0.00 in 0.0 W/m2 OVC
01:51 48.7 °F 39.0 °F 30.01 in South 4.6 mph 4.6 mph 69 % 0.00 in 0.0 W/m2 OVC
01:56 48.8 °F 39.1 °F 30.01 in South 4.6 mph 4.6 mph 69 % 0.00 in 0.0 W/m2 OVC
02:01 49.0 °F 39.3 °F 30.01 in South 6.9 mph 6.9 mph 69 % 0.00 in 0.0 W/m2 OVC
02:06 49.2 °F 39.5 °F 30.01 in SSE 8.1 mph 8.1 mph 69 % 0.00 in 0.0 W/m2 OVC
02:11 49.2 °F 39.5 °F 30.00 in SSE 10.4 mph 10.4 mph 69 % 0.00 in 0.0 W/m2 OVC
02:16 49.4 °F 39.7 °F 30.00 in SSE 11.5 mph 11.5 mph 69 % 0.00 in 0.0 W/m2 OVC
02:21 49.4 °F 39.7 °F 30.00 in SSE 11.5 mph 11.5 mph 69 % 0.00 in 0.0 W/m2 OVC
02:26 49.5 °F 39.7 °F 29.99 in SSE 11.5 mph 11.5 mph 69 % 0.00 in 0.0 W/m2 OVC
02:31 49.6 °F 39.8 °F 29.99 in SSE 9.2 mph 9.2 mph 69 % 0.00 in 0.0 W/m2 OVC
02:36 49.7 °F 39.6 °F 29.99 in SSE 9.2 mph 9.2 mph 68 % 0.00 in 0.0 W/m2 OVC
02:42 49.9 °F 39.8 °F 29.99 in SSE 11.5 mph 11.5 mph 68 % 0.00 in 0.0 W/m2 OVC
02:47 50.1 °F 39.9 °F 29.99 in South 10.4 mph 10.4 mph 68 % 0.00 in 0.0 W/m2 OVC
02:52 50.1 °F 39.9 °F 29.99 in South 12.0 mph 12.0 mph 68 % 0.00 in 0.0 W/m2 OVC
02:57 50.1 °F 40.3 °F 29.98 in South 8.1 mph 8.1 mph 69 % 0.00 in 0.0 W/m2 OVC
03:02 49.9 °F 40.1 °F 29.98 in South 9.2 mph 9.2 mph 69 % 0.00 in 0.0 W/m2 OVC
03:07 49.8 °F 40.0 °F 29.98 in SSE 8.0 mph 8.0 mph 69 % 0.00 in 0.0 W/m2 OVC
03:12 49.6 °F 40.2 °F 29.98 in SSE 10.4 mph 10.4 mph 70 % 0.00 in 0.0 W/m2 OVC
03:17 49.6 °F 40.2 °F 29.98 in SSE 9.0 mph 9.0 mph 70 % 0.00 in 0.0 W/m2 OVC
03:22 49.6 °F 40.2 °F 29.97 in SSE 9.2 mph 9.2 mph 70 % 0.00 in 0.0 W/m2 OVC
03:27 49.7 °F 40.3 °F 29.97 in SSE 12.7 mph 12.7 mph 70 % 0.00 in 0.0 W/m2 OVC
03:32 49.8 °F 40.8 °F 29.96 in SSE 10.4 mph 10.4 mph 71 % 0.00 in 0.0 W/m2 BKN
03:37 49.9 °F 40.9 °F 29.96 in SSE 11.5 mph 11.5 mph 71 % 0.00 in 0.0 W/m2 BKN
03:42 50.0 °F 41.0 °F 29.96 in SSE 11.5 mph 11.5 mph 71 % 0.00 in 0.0 W/m2 BKN
03:47 50.4 °F 41.0 °F 29.95 in SSE 11.5 mph 11.5 mph 70 % 0.00 in 0.0 W/m2 OVC
03:52 50.9 °F 41.1 °F 29.96 in South 11.5 mph 11.5 mph 69 % 0.00 in 0.0 W/m2 OVC
03:57 51.4 °F 41.2 °F 29.96 in South 11.5 mph 11.5 mph 68 % 0.00 in 0.0 W/m2 OVC
04:02 51.8 °F 41.6 °F 29.95 in South 16.1 mph 16.1 mph 68 % 0.00 in 0.0 W/m2 OVC
04:07 52.0 °F 41.4 °F 29.96 in South 11.5 mph 11.5 mph 67 % 0.00 in 0.0 W/m2 OVC
04:12 52.1 °F 41.5 °F 29.95 in SSE 11.5 mph 11.5 mph 67 % 0.00 in 0.0 W/m2 OVC
04:17 52.2 °F 41.6 °F 29.95 in South 11.5 mph 11.5 mph 67 % 0.00 in 0.0 W/m2 OVC
04:22 52.3 °F 41.7 °F 29.95 in South 11.5 mph 11.5 mph 67 % 0.00 in 0.0 W/m2 OVC
04:27 52.3 °F 41.7 °F 29.95 in SSE 10.4 mph 10.4 mph 67 % 0.00 in 0.0 W/m2 OVC
04:37 52.3 °F 41.7 °F 29.95 in SSE 5.8 mph 5.8 mph 67 % 0.00 in 0.0 W/m2 OVC
04:42 52.2 °F 42.0 °F 29.95 in South 5.8 mph 5.8 mph 68 % 0.00 in 0.0 W/m2 OVC
04:47 52.1 °F 41.9 °F 29.95 in SSE 6.0 mph 6.0 mph 68 % 0.00 in 0.0 W/m2 OVC
04:52 52.2 °F 42.0 °F 29.94 in SSE 6.9 mph 6.9 mph 68 % 0.00 in 0.0 W/m2 OVC
04:57 52.5 °F 42.2 °F 29.94 in SSE 8.1 mph 8.1 mph 68 % 0.00 in 0.0 W/m2 OVC
05:02 52.6 °F 41.9 °F 29.94 in SSE 11.5 mph 11.5 mph 67 % 0.00 in 0.0 W/m2 OVC
05:07 52.9 °F 41.8 °F 29.94 in SSE 10.4 mph 10.4 mph 66 % 0.00 in 0.0 W/m2 OVC
05:12 53.2 °F 42.1 °F 29.93 in South 11.5 mph 11.5 mph 66 % 0.00 in 0.0 W/m2 OVC
05:17 53.2 °F 42.1 °F 29.93 in SSE 18.0 mph 18.0 mph 66 % 0.00 in 0.0 W/m2 OVC
05:22 53.4 °F 41.9 °F 29.93 in South 16.1 mph 16.1 mph 65 % 0.00 in 0.0 W/m2 OVC
05:27 53.4 °F 42.3 °F 29.93 in SSE 12.0 mph 12.0 mph 66 % 0.00 in 0.0 W/m2 OVC
05:32 53.3 °F 41.8 °F 29.93 in South 11.5 mph 11.5 mph 65 % 0.00 in 0.0 W/m2 OVC
05:37 53.3 °F 41.8 °F 29.92 in South 11.5 mph 11.5 mph 65 % 0.00 in 0.0 W/m2 OVC
05:42 53.2 °F 42.1 °F 29.92 in SSE 15.0 mph 15.0 mph 66 % 0.00 in 0.0 W/m2 OVC
05:47 53.2 °F 42.1 °F 29.92 in SSE 12.7 mph 12.7 mph 66 % 0.00 in 0.0 W/m2 OVC
05:52 53.3 °F 41.8 °F 29.92 in SSE 13.8 mph 13.8 mph 65 % 0.00 in 0.0 W/m2 OVC
05:57 53.3 °F 42.2 °F 29.91 in SSE 12.7 mph 12.7 mph 66 % 0.00 in 0.0 W/m2 OVC
06:02 53.1 °F 42.0 °F 29.92 in SSE 12.0 mph 12.0 mph 66 % 0.00 in 0.0 W/m2 BKN
06:07 52.8 °F 41.7 °F 29.91 in South 18.4 mph 18.4 mph 66 % 0.00 in 0.0 W/m2 BKN
06:12 52.6 °F 41.9 °F 29.90 in SSE 13.8 mph 13.8 mph 67 % 0.00 in 0.0 W/m2 BKN
06:17 52.3 °F 41.7 °F 29.90 in SSE 12.7 mph 12.7 mph 67 % 0.00 in 0.0 W/m2 BKN
06:22 52.0 °F 41.8 °F 29.90 in South 11.5 mph 11.5 mph 68 % 0.00 in 0.0 W/m2 BKN
06:27 52.0 °F 41.8 °F 29.90 in SE 10.0 mph 10.0 mph 68 % 0.00 in 0.0 W/m2 BKN
06:32 52.3 °F 42.0 °F 29.90 in South 15.0 mph 15.0 mph 68 % 0.00 in 0.0 W/m2 BKN
06:37 52.4 °F 42.1 °F 29.90 in South 11.5 mph 11.5 mph 68 % 0.00 in 0.0 W/m2 BKN
06:42 52.5 °F 42.2 °F 29.89 in SSE 12.7 mph 12.7 mph 68 % 0.00 in 0.0 W/m2 BKN
06:47 52.5 °F 42.2 °F 29.89 in South 16.1 mph 16.1 mph 68 % 0.00 in 0.0 W/m2 BKN
06:52 52.3 °F 42.0 °F 29.89 in SSE 12.7 mph 12.7 mph 68 % 0.00 in 0.0 W/m2 BKN
06:57 51.8 °F 41.9 °F 29.89 in SSE 11.5 mph 11.5 mph 69 % 0.00 in 0.0 W/m2 BKN
07:02 51.5 °F 41.7 °F 29.88 in SSE 11.5 mph 11.5 mph 69 % 0.00 in 0.0 W/m2 SCT
07:07 51.4 °F 41.9 °F 29.88 in SSE 12.7 mph 12.7 mph 70 % 0.00 in 0.0 W/m2 SCT
07:12 51.3 °F 41.8 °F 29.88 in South 11.5 mph 11.5 mph 70 % 0.00 in 5.0 W/m2 SCT
07:17 51.2 °F 41.7 °F 29.88 in SSE 10.4 mph 10.4 mph 70 % 0.00 in 7.0 W/m2 SCT
07:22 51.2 °F 41.7 °F 29.88 in SSE 8.1 mph 8.1 mph 70 % 0.00 in 11.0 W/m2 SCT
07:27 51.3 °F 42.2 °F 29.88 in SSE 9.2 mph 9.2 mph 71 % 0.00 in 12.0 W/m2 SCT
07:32 51.3 °F 42.2 °F 29.88 in SSE 11.5 mph 11.5 mph 71 % 0.00 in 18.0 W/m2 CLR
07:38 51.5 °F 42.0 °F 29.88 in SSE 9.2 mph 9.2 mph 70 % 0.00 in 30.0 W/m2 CLR
07:43 51.9 °F 42.4 °F 29.87 in SSE 11.5 mph 11.5 mph 70 % 0.00 in 40.0 W/m2 CLR
07:48 52.1 °F 42.6 °F 29.87 in SSE 12.7 mph 12.7 mph 70 % 0.00 in 46.0 W/m2 SCT
07:53 52.3 °F 42.8 °F 29.87 in SSE 13.8 mph 13.8 mph 70 % 0.00 in 54.0 W/m2 SCT
07:58 52.4 °F 42.9 °F 29.87 in South 13.8 mph 13.8 mph 70 % 0.00 in 51.0 W/m2 SCT
08:03 52.6 °F 42.7 °F 29.87 in SSE 12.7 mph 12.7 mph 69 % 0.00 in 46.0 W/m2 SCT
08:08 52.8 °F 42.9 °F 29.87 in South 12.7 mph 12.7 mph 69 % 0.00 in 30.0 W/m2 SCT
08:13 53.0 °F 43.1 °F 29.87 in South 13.8 mph 13.8 mph 69 % 0.00 in 26.0 W/m2 SCT
08:18 53.1 °F 43.2 °F 29.86 in South 15.0 mph 15.0 mph 69 % 0.00 in 39.0 W/m2 SCT
08:23 53.3 °F 43.4 °F 29.86 in SSE 11.5 mph 11.5 mph 69 % 0.00 in 49.0 W/m2 SCT
08:28 53.7 °F 43.4 °F 29.86 in South 19.6 mph 19.6 mph 68 % 0.00 in 49.0 W/m2 SCT
08:33 54.0 °F 43.7 °F 29.85 in SSE 16.1 mph 16.1 mph 68 % 0.00 in 51.0 W/m2 OVC
08:38 54.3 °F 44.0 °F 29.85 in South 19.6 mph 19.6 mph 68 % 0.00 in 51.0 W/m2 OVC
08:43 54.6 °F 44.2 °F 29.84 in South 13.8 mph 13.8 mph 68 % 0.00 in 62.0 W/m2 OVC
08:48 54.9 °F 44.1 °F 29.84 in South 18.4 mph 18.4 mph 67 % 0.00 in 63.0 W/m2 OVC
08:53 55.2 °F 44.4 °F 29.84 in SSE 18.4 mph 18.4 mph 67 % 0.00 in 76.0 W/m2 OVC
08:58 55.5 °F 44.7 °F 29.84 in South 17.3 mph 17.3 mph 67 % 0.00 in 62.0 W/m2 OVC
09:03 55.8 °F 44.6 °F 29.84 in SSE 20.7 mph 20.7 mph 66 % 0.00 in 74.0 W/m2 OVC
09:08 56.0 °F 44.8 °F 29.84 in South 19.6 mph 19.6 mph 66 % 0.00 in 54.0 W/m2 OVC
09:13 56.3 °F 44.7 °F 29.83 in SSE 24.2 mph 24.2 mph 65 % 0.00 in 70.0 W/m2 OVC
09:18 56.5 °F 44.9 °F 29.83 in South 16.0 mph 16.0 mph 65 % 0.00 in 107.0 W/m2 OVC
09:23 56.9 °F 44.8 °F 29.83 in SSE 21.9 mph 21.9 mph 64 % 0.00 in 121.0 W/m2 OVC
09:28 57.1 °F 45.0 °F 29.83 in SSE 22.0 mph 22.0 mph 64 % 0.00 in 116.0 W/m2 OVC
09:33 57.4 °F 45.3 °F 29.83 in South 19.6 mph 19.6 mph 64 % 0.00 in 125.0 W/m2 OVC
09:38 57.7 °F 45.6 °F 29.82 in SSE 20.7 mph 20.7 mph 64 % 0.00 in 102.0 W/m2 OVC
09:43 57.8 °F 45.7 °F 29.82 in South 22.0 mph 22.0 mph 64 % 0.00 in 111.0 W/m2 OVC
09:48 57.8 °F 45.7 °F 29.82 in SSE 15.0 mph 15.0 mph 64 % 0.00 in 116.0 W/m2 OVC
09:58 58.2 °F 46.1 °F 29.82 in South 25.3 mph 25.3 mph 64 % 0.00 in 125.0 W/m2 OVC
10:03 58.3 °F 46.2 °F 29.81 in SSE 20.7 mph 20.7 mph 64 % 0.00 in 102.0 W/m2 OVC
10:08 58.4 °F 46.3 °F 29.81 in South 20.7 mph 20.7 mph 64 % 0.00 in 139.0 W/m2 OVC
10:13 58.4 °F 46.3 °F 29.81 in SSE 17.3 mph 17.3 mph 64 % 0.00 in 127.0 W/m2 OVC
10:18 58.5 °F 46.4 °F 29.80 in SSW 25.0 mph 25.0 mph 64 % 0.00 in 142.0 W/m2 OVC
10:23 58.6 °F 46.5 °F 29.80 in South 21.9 mph 21.9 mph 64 % 0.00 in 172.0 W/m2 OVC
10:28 58.8 °F 46.6 °F 29.79 in SSE 16.1 mph 16.1 mph 64 % 0.00 in 216.0 W/m2 OVC
10:33 58.9 °F 46.7 °F 29.79 in South 20.7 mph 20.7 mph 64 % 0.00 in 174.0 W/m2 OVC
10:38 58.9 °F 46.7 °F 29.78 in South 19.6 mph 19.6 mph 64 % 0.00 in 120.0 W/m2 OVC
10:43 58.8 °F 46.6 °F 29.78 in South 20.7 mph 20.7 mph 64 % 0.00 in 163.0 W/m2 OVC
10:53 59.0 °F 46.8 °F 29.78 in South 18.4 mph 18.4 mph 64 % 0.00 in 137.0 W/m2 OVC
10:58 59.1 °F 46.9 °F 29.77 in South 20.7 mph 20.7 mph 64 % 0.00 in 113.0 W/m2 OVC
11:03 59.2 °F 47.0 °F 29.77 in SW 19.6 mph 19.6 mph 64 % 0.00 in 156.0 W/m2 OVC
11:08 59.5 °F 47.3 °F 29.76 in South 24.2 mph 24.2 mph 64 % 0.00 in 188.0 W/m2 OVC
11:13 60.0 °F 47.8 °F 29.76 in South 16.1 mph 16.1 mph 64 % 0.00 in 272.0 W/m2 OVC
11:18 60.5 °F 47.8 °F 29.75 in SSE 24.2 mph 24.2 mph 63 % 0.00 in 271.0 W/m2 OVC
11:23 60.9 °F 47.8 °F 29.75 in South 23.0 mph 23.0 mph 62 % 0.00 in 230.0 W/m2 OVC
11:28 61.1 °F 48.0 °F 29.75 in South 18.4 mph 18.4 mph 62 % 0.00 in 225.0 W/m2 OVC
11:33 61.3 °F 48.2 °F 29.74 in SW 15.0 mph 15.0 mph 62 % 0.00 in 216.0 W/m2 BKN
11:38 61.5 °F 48.4 °F 29.74 in South 19.6 mph 19.6 mph 62 % 0.00 in 255.0 W/m2 BKN
11:43 61.8 °F 48.6 °F 29.74 in SSW 17.3 mph 17.3 mph 62 % 0.00 in 234.0 W/m2 BKN
11:48 62.1 °F 48.5 °F 29.74 in South 18.4 mph 18.4 mph 61 % 0.00 in 186.0 W/m2 SCT
11:53 62.1 °F 48.5 °F 29.73 in South 19.6 mph 19.6 mph 61 % 0.00 in 162.0 W/m2 SCT
11:58 62.1 °F 48.9 °F 29.73 in South 19.6 mph 19.6 mph 62 % 0.00 in 181.0 W/m2 SCT
12:03 62.2 °F 49.0 °F 29.72 in South 20.7 mph 20.7 mph 62 % 0.00 in 185.0 W/m2 CLR
12:08 62.4 °F 49.2 °F 29.72 in South 19.6 mph 19.6 mph 62 % 0.00 in 197.0 W/m2 CLR
12:13 62.5 °F 49.3 °F 29.72 in SW 18.4 mph 18.4 mph 62 % 0.00 in 225.0 W/m2 CLR
12:18 62.8 °F 49.6 °F 29.72 in South 23.0 mph 23.0 mph 62 % 0.00 in 306.0 W/m2 CLR
12:23 63.0 °F 49.8 °F 29.72 in South 19.6 mph 19.6 mph 62 % 0.00 in 220.0 W/m2 CLR
12:28 63.0 °F 49.8 °F 29.71 in South 18.4 mph 18.4 mph 62 % 0.00 in 207.0 W/m2 CLR
12:33 62.9 °F 49.7 °F 29.71 in South 19.6 mph 19.6 mph 62 % 0.00 in 211.0 W/m2 CLR
12:38 62.9 °F 49.7 °F 29.70 in SW 20.7 mph 20.7 mph 62 % 0.00 in 206.0 W/m2 CLR
12:43 63.1 °F 49.9 °F 29.70 in SSW 19.6 mph 19.6 mph 62 % 0.00 in 202.0 W/m2 CLR
12:48 63.2 °F 50.0 °F 29.70 in SSE 24.2 mph 24.2 mph 62 % 0.00 in 179.0 W/m2 CLR
12:53 63.1 °F 49.9 °F 29.70 in South 19.6 mph 19.6 mph 62 % 0.00 in 169.0 W/m2 CLR
12:58 63.2 °F 50.0 °F 29.70 in South 25.3 mph 25.3 mph 62 % 0.00 in 192.0 W/m2 CLR
13:03 63.4 °F 49.7 °F 29.69 in SW 24.2 mph 24.2 mph 61 % 0.00 in 197.0 W/m2 CLR
13:08 63.5 °F 50.2 °F 29.69 in South 17.3 mph 17.3 mph 62 % 0.00 in 186.0 W/m2 CLR
13:13 63.6 °F 49.9 °F 29.69 in South 19.6 mph 19.6 mph 61 % 0.00 in 158.0 W/m2 CLR
13:18 63.6 °F 49.9 °F 29.68 in South 19.6 mph 19.6 mph 61 % 0.00 in 160.0 W/m2 CLR
13:23 63.5 °F 49.8 °F 29.68 in SSW 17.3 mph 17.3 mph 61 % 0.00 in 155.0 W/m2 CLR
13:28 63.5 °F 49.8 °F 29.67 in South 25.3 mph 25.3 mph 61 % 0.00 in 148.0 W/m2 CLR
13:33 63.4 °F 49.7 °F 29.67 in South 28.8 mph 28.8 mph 61 % 0.00 in 137.0 W/m2 SCT
13:38 63.4 °F 50.1 °F 29.67 in SSW 17.3 mph 17.3 mph 62 % 0.00 in 121.0 W/m2 SCT
13:43 63.3 °F 49.6 °F 29.68 in SSW 19.6 mph 19.6 mph 61 % 0.00 in 114.0 W/m2 SCT
13:48 63.2 °F 49.5 °F 29.67 in South 18.4 mph 18.4 mph 61 % 0.00 in 128.0 W/m2 SCT
13:50 63.2 °F 49.5 °F 29.67 in SSE 19.6 mph 19.6 mph 61 % 0.00 in 135.0 W/m2 SCT
13:55 63.2 °F 49.5 °F 29.67 in South 19.6 mph 19.6 mph 61 % 0.00 in 141.0 W/m2 SCT
14:00 63.2 °F 49.5 °F 29.68 in South 17.3 mph 17.3 mph 61 % 0.00 in 132.0 W/m2 SCT
14:05 63.1 °F 49.4 °F 29.68 in South 19.6 mph 19.6 mph 61 % 0.00 in 125.0 W/m2 SCT
14:10 63.1 °F 49.4 °F 29.68 in South 21.9 mph 21.9 mph 61 % 0.00 in 109.0 W/m2 SCT
14:15 63.0 °F 49.3 °F 29.68 in South 18.4 mph 18.4 mph 61 % 0.00 in 91.0 W/m2 SCT
14:20 63.1 °F 49.4 °F 29.67 in SSW 19.6 mph 19.6 mph 61 % 0.00 in 93.0 W/m2 SCT
14:25 63.2 °F 49.5 °F 29.68 in South 21.9 mph 21.9 mph 61 % 0.00 in 81.0 W/m2 SCT
14:30 63.3 °F 49.2 °F 29.67 in SSE 20.7 mph 20.7 mph 60 % 0.00 in 79.0 W/m2 SCT
14:35 63.2 °F 49.1 °F 29.67 in South 24.2 mph 24.2 mph 60 % 0.00 in 69.0 W/m2 CLR
14:40 63.2 °F 48.6 °F 29.67 in South 18.4 mph 18.4 mph 59 % 0.00 in 46.0 W/m2 CLR
14:45 63.1 °F 48.5 °F 29.67 in South 21.9 mph 21.9 mph 59 % 0.00 in 44.0 W/m2 CLR
14:50 63.1 °F 48.5 °F 29.67 in South 16.1 mph 16.1 mph 59 % 0.00 in 46.0 W/m2 SCT
14:55 63.1 °F 48.5 °F 29.68 in SSW 12.7 mph 12.7 mph 59 % 0.00 in 56.0 W/m2 SCT
15:00 63.0 °F 48.9 °F 29.68 in South 16.1 mph 16.1 mph 60 % 0.00 in 56.0 W/m2 SCT
15:05 63.0 °F 48.9 °F 29.68 in South 17.3 mph 17.3 mph 60 % 0.00 in 47.0 W/m2 SCT
15:10 63.1 °F 49.0 °F 29.68 in SW 19.6 mph 19.6 mph 60 % 0.00 in 40.0 W/m2 SCT
15:15 63.0 °F 48.4 °F 29.68 in SSW 21.9 mph 21.9 mph 59 % 0.00 in 42.0 W/m2 SCT
15:20 63.1 °F 48.5 °F 29.68 in SSW 17.3 mph 17.3 mph 59 % 0.00 in 26.0 W/m2 OVC
15:25 63.1 °F 48.5 °F 29.68 in SSW 18.4 mph 18.4 mph 59 % 0.00 in 19.0 W/m2 OVC
15:30 63.0 °F 48.4 °F 29.68 in South 13.8 mph 13.8 mph 59 % 0.00 in 18.0 W/m2 OVC
15:35 62.8 °F 48.7 °F 29.68 in South 19.6 mph 19.6 mph 60 % 0.00 in 19.0 W/m2 OVC
15:40 62.9 °F 48.3 °F 29.68 in South 21.9 mph 21.9 mph 59 % 0.00 in 21.0 W/m2 OVC
15:45 62.9 °F 48.8 °F 29.67 in SSW 21.9 mph 21.9 mph 60 % 0.00 in 26.0 W/m2 OVC
15:50 62.6 °F 48.5 °F 29.66 in South 13.8 mph 13.8 mph 60 % 0.00 in 28.0 W/m2 OVC
15:55 62.2 °F 48.6 °F 29.67 in South 19.6 mph 19.6 mph 61 % 0.00 in 21.0 W/m2 OVC
16:00 61.7 °F 48.1 °F 29.66 in SSE 19.6 mph 19.6 mph 61 % 0.00 in 14.0 W/m2 OVC
16:05 61.6 °F 48.4 °F 29.66 in South 19.6 mph 19.6 mph 62 % 0.00 in 7.0 W/m2 BKN
16:10 61.7 °F 48.5 °F 29.66 in South 20.7 mph 20.7 mph 62 % 0.00 in 0.0 W/m2 BKN
16:15 61.6 °F 48.4 °F 29.65 in SSE 17.3 mph 17.3 mph 62 % 0.00 in 0.0 W/m2 BKN
16:20 61.4 °F 47.8 °F 29.65 in South 19.6 mph 19.6 mph 61 % 0.00 in 0.0 W/m2 BKN
16:25 61.2 °F 48.1 °F 29.65 in South 22.0 mph 22.0 mph 62 % 0.00 in 0.0 W/m2 BKN
16:30 60.9 °F 47.8 °F 29.64 in South 25.3 mph 25.3 mph 62 % 0.00 in 0.0 W/m2 BKN
16:35 60.9 °F 47.8 °F 29.64 in South 19.6 mph 19.6 mph 62 % 0.00 in 0.0 W/m2 BKN
16:40 60.7 °F 48.0 °F 29.64 in SSE 21.9 mph 21.9 mph 63 % 0.00 in 0.0 W/m2 BKN
16:45 60.8 °F 48.1 °F 29.63 in SSE 25.3 mph 25.3 mph 63 % 0.00 in 0.0 W/m2 BKN
16:50 60.8 °F 48.1 °F 29.62 in SSW 23.0 mph 23.0 mph 63 % 0.00 in 0.0 W/m2 SCT
16:55 60.8 °F 48.1 °F 29.62 in SW 21.9 mph 21.9 mph 63 % 0.00 in 0.0 W/m2 SCT
17:00 60.9 °F 48.6 °F 29.62 in South 23.0 mph 23.0 mph 64 % 0.00 in 0.0 W/m2 SCT
17:05 61.1 °F 48.8 °F 29.62 in SSW 23.0 mph 23.0 mph 64 % 0.00 in 0.0 W/m2 SCT
17:10 61.0 °F 48.7 °F 29.62 in SSE 23.0 mph 23.0 mph 64 % 0.00 in 0.0 W/m2 SCT
17:15 60.8 °F 48.5 °F 29.62 in South 24.2 mph 24.2 mph 64 % 0.00 in 0.0 W/m2 SCT
17:20 60.9 °F 48.6 °F 29.62 in South 26.5 mph 26.5 mph 64 % 0.00 in 0.0 W/m2 CLR
17:30 60.9 °F 49.1 °F 29.62 in SSW 19.6 mph 19.6 mph 65 % 0.00 in 0.0 W/m2 CLR
17:35 61.1 °F 49.2 °F 29.62 in SSW 23.0 mph 23.0 mph 65 % 0.00 in 0.0 W/m2 CLR
17:40 61.1 °F 49.7 °F 29.62 in South 26.5 mph 26.5 mph 66 % 0.00 in 0.0 W/m2 CLR
17:45 61.2 °F 49.7 °F 29.62 in South 26.5 mph 26.5 mph 66 % 0.00 in 0.0 W/m2 CLR
17:50 61.3 °F 50.2 °F 29.62 in South 26.5 mph 26.5 mph 67 % 0.00 in 0.0 W/m2 SCT
17:55 61.2 °F 50.2 °F 29.61 in SSE 23.0 mph 23.0 mph 67 % 0.00 in 0.0 W/m2 SCT
17:56 61.2 °F 50.2 °F 29.61 in South 23.0 mph 23.0 mph 67 % 0.00 in 0.0 W/m2 SCT
18:01 61.2 °F 50.6 °F 29.61 in South 21.9 mph 21.9 mph 68 % 0.00 in 0.0 W/m2 OVC
18:06 61.3 °F 50.6 °F 29.61 in South 23.0 mph 23.0 mph 68 % 0.00 in 0.0 W/m2 OVC
18:11 61.2 °F 50.6 °F 29.61 in SSW 20.7 mph 20.7 mph 68 % 0.00 in 0.0 W/m2 OVC
18:16 61.2 °F 50.2 °F 29.61 in SSE 25.3 mph 25.3 mph 67 % 0.00 in 0.0 W/m2 OVC
18:21 61.1 °F 50.1 °F 29.61 in South 18.4 mph 18.4 mph 67 % 0.00 in 0.0 W/m2 OVC
18:26 61.0 °F 50.0 °F 29.59 in South 24.2 mph 24.2 mph 67 % 0.00 in 0.0 W/m2 OVC
18:31 60.9 °F 49.9 °F 29.59 in SSW 20.7 mph 20.7 mph 67 % 0.00 in 0.0 W/m2 OVC
18:36 60.8 °F 49.8 °F 29.59 in SSW 21.9 mph 21.9 mph 67 % 0.00 in 0.0 W/m2 OVC
18:41 60.8 °F 49.8 °F 29.59 in South 19.6 mph 19.6 mph 67 % 0.00 in 0.0 W/m2 OVC
18:46 60.9 °F 49.9 °F 29.60 in SSE 20.0 mph 20.0 mph 67 % 0.00 in 0.0 W/m2 OVC
18:51 60.8 °F 50.2 °F 29.59 in SW 21.9 mph 21.9 mph 68 % 0.00 in 0.0 W/m2 OVC
18:56 60.9 °F 50.3 °F 29.60 in South 19.6 mph 19.6 mph 68 % 0.00 in 0.0 W/m2 OVC
19:01 60.9 °F 50.3 °F 29.60 in South 19.6 mph 19.6 mph 68 % 0.00 in 0.0 W/m2 SCT
19:06 60.8 °F 50.2 °F 29.60 in SSW 18.4 mph 18.4 mph 68 % 0.00 in 0.0 W/m2 SCT
19:11 60.7 °F 50.5 °F 29.59 in South 25.3 mph 25.3 mph 69 % 0.00 in 0.0 W/m2 SCT
19:16 60.7 °F 50.5 °F 29.59 in South 21.9 mph 21.9 mph 69 % 0.00 in 0.0 W/m2 SCT
19:21 60.6 °F 50.4 °F 29.59 in SSW 27.6 mph 27.6 mph 69 % 0.00 in 0.0 W/m2 SCT
19:26 60.7 °F 50.9 °F 29.59 in South 19.6 mph 19.6 mph 70 % 0.00 in 0.0 W/m2 SCT
19:31 60.7 °F 50.9 °F 29.59 in South 19.6 mph 19.6 mph 70 % 0.00 in 0.0 W/m2 BKN
19:36 60.7 °F 50.9 °F 29.59 in South 27.6 mph 27.6 mph 70 % 0.00 in 0.0 W/m2 BKN
19:41 60.8 °F 51.0 °F 29.59 in SSW 21.9 mph 21.9 mph 70 % 0.00 in 0.0 W/m2 BKN
19:46 60.9 °F 51.8 °F 29.58 in SSW 26.5 mph 26.5 mph 72 % 0.00 in 0.0 W/m2 BKN
19:51 60.8 °F 51.7 °F 29.59 in South 22.0 mph 22.0 mph 72 % 0.00 in 0.0 W/m2 BKN
20:01 60.9 °F 52.2 °F 29.59 in South 26.5 mph 26.5 mph 73 % 0.00 in 0.0 W/m2 SCT
20:06 61.1 °F 52.4 °F 29.59 in South 21.9 mph 21.9 mph 73 % 0.00 in 0.0 W/m2 SCT
20:11 61.2 °F 52.8 °F 29.59 in South 23.0 mph 23.0 mph 74 % 0.00 in 0.0 W/m2 SCT
20:16 61.4 °F 53.0 °F 29.59 in South 25.3 mph 25.3 mph 74 % 0.00 in 0.0 W/m2 SCT
20:21 61.4 °F 52.7 °F 29.58 in South 29.9 mph 29.9 mph 73 % 0.00 in 0.0 W/m2 SCT
20:22 61.4 °F 53.0 °F 29.58 in SSW 23.0 mph 23.0 mph 74 % 0.00 in 0.0 W/m2 SCT
20:27 61.4 °F 52.7 °F 29.58 in SW 20.7 mph 20.7 mph 73 % 0.00 in 0.0 W/m2 SCT
20:32 61.4 °F 52.7 °F 29.58 in SSE 16.1 mph 16.1 mph 73 % 0.00 in 0.0 W/m2 OVC
20:37 61.4 °F 53.0 °F 29.58 in SSW 19.6 mph 19.6 mph 74 % 0.00 in 0.0 W/m2 OVC
20:42 61.5 °F 53.1 °F 29.58 in SSW 20.7 mph 20.7 mph 74 % 0.00 in 0.0 W/m2 OVC
20:47 61.4 °F 53.0 °F 29.58 in SSW 23.0 mph 23.0 mph 74 % 0.00 in 0.0 W/m2 OVC
20:52 61.4 °F 53.4 °F 29.58 in South 25.3 mph 25.3 mph 75 % 0.00 in 0.0 W/m2 OVC
20:57 61.3 °F 54.0 °F 29.58 in South 23.0 mph 23.0 mph 77 % 0.00 in 0.0 W/m2 OVC
21:02 61.1 °F 54.2 °F 29.58 in South 24.2 mph 24.2 mph 78 % 0.00 in 0.0 W/m2 OVC
21:07 60.9 °F 54.3 °F 29.58 in South 26.5 mph 26.5 mph 79 % 0.00 in 0.0 W/m2 OVC
21:13 60.7 °F 54.5 °F 29.58 in SSW 24.2 mph 24.2 mph 80 % 0.00 in 0.0 W/m2 OVC
21:18 60.5 °F 54.6 °F 29.58 in SSW 17.3 mph 17.3 mph 81 % 0.00 in 0.0 W/m2 OVC
21:20 60.3 °F 54.8 °F 29.58 in SSW 20.0 mph 20.0 mph 82 % 0.00 in 0.0 W/m2 OVC
21:25 59.4 °F 54.9 °F 29.57 in SSW 19.6 mph 19.6 mph 85 % 0.00 in 0.0 W/m2 OVC
21:30 59.0 °F 55.1 °F 29.57 in SSW 20.7 mph 20.7 mph 87 % 0.00 in 0.0 W/m2 OVC
21:35 58.9 °F 55.0 °F 29.57 in SE 18.4 mph 18.4 mph 87 % 0.00 in 0.0 W/m2 OVC
21:40 58.8 °F 55.3 °F 29.56 in South 23.0 mph 23.0 mph 88 % 0.00 in 0.0 W/m2 OVC
21:45 58.9 °F 55.0 °F 29.56 in South 19.6 mph 19.6 mph 87 % 0.00 in 0.0 W/m2 OVC
21:55 59.0 °F 55.1 °F 29.56 in South 26.5 mph 26.5 mph 87 % 0.00 in 0.0 W/m2 OVC
22:00 59.1 °F 55.2 °F 29.56 in SSW 17.3 mph 17.3 mph 87 % 0.00 in 0.0 W/m2 OVC
22:05 59.2 °F 55.3 °F 29.56 in SSW 21.9 mph 21.9 mph 87 % 0.00 in 0.0 W/m2 OVC
22:10 59.4 °F 55.2 °F 29.56 in South 26.5 mph 26.5 mph 86 % 0.00 in 0.0 W/m2 OVC
22:15 59.5 °F 55.6 °F 29.56 in South 17.3 mph 17.3 mph 87 % 0.00 in 0.0 W/m2 OVC
22:20 59.6 °F 55.7 °F 29.56 in SSW 23.0 mph 23.0 mph 87 % 0.00 in 0.0 W/m2 BKN
22:25 59.8 °F 55.9 °F 29.56 in South 26.5 mph 26.5 mph 87 % 0.00 in 0.0 W/m2 BKN
22:30 59.8 °F 55.9 °F 29.57 in SSW 26.5 mph 26.5 mph 87 % 0.00 in 0.0 W/m2 BKN
22:35 59.7 °F 55.8 °F 29.56 in SSW 26.5 mph 26.5 mph 87 % 0.00 in 0.0 W/m2 OVC
22:36 59.7 °F 55.8 °F 29.56 in South 26.5 mph 26.5 mph 87 % 0.00 in 0.0 W/m2 OVC
22:41 59.7 °F 56.1 °F 29.57 in SW 27.6 mph 27.6 mph 88 % 0.00 in 0.0 W/m2 OVC
22:46 59.3 °F 55.1 °F 29.61 in WSW 28.8 mph 28.8 mph 86 % 0.01 in 0.0 W/m2 RA
22:51 55.2 °F 48.5 °F 29.61 in WSW 18.4 mph 18.4 mph 78 % 0.03 in 0.0 W/m2 RA
22:56 53.1 °F 47.7 °F 29.61 in WNW 21.0 mph 21.0 mph 82 % 0.03 in 0.0 W/m2 RA
23:01 51.9 °F 47.2 °F 29.62 in WSW 20.7 mph 20.7 mph 84 % 0.03 in 0.0 W/m2 OVC
23:06 51.3 °F 46.9 °F 29.63 in SW 16.1 mph 16.1 mph 85 % 0.03 in 0.0 W/m2 OVC
23:11 50.9 °F 46.9 °F 29.64 in West 16.1 mph 16.1 mph 86 % 0.03 in 0.0 W/m2 OVC
23:16 50.6 °F 46.6 °F 29.64 in WSW 26.5 mph 26.5 mph 86 % 0.03 in 0.0 W/m2 OVC
23:21 50.2 °F 46.2 °F 29.64 in WSW 13.8 mph 13.8 mph 86 % 0.03 in 0.0 W/m2 -RA
23:26 49.9 °F 45.9 °F 29.65 in WSW 20.7 mph 20.7 mph 86 % 0.03 in 0.0 W/m2 -RA
23:31 49.3 °F 44.7 °F 29.66 in WSW 17.3 mph 17.3 mph 84 % 0.03 in 0.0 W/m2 -RA
23:36 48.6 °F 43.4 °F 29.66 in SW 18.4 mph 18.4 mph 82 % 0.03 in 0.0 W/m2 -RA
23:41 48.1 °F 41.2 °F 29.66 in SW 33.4 mph 33.4 mph 77 % 0.03 in 0.0 W/m2 OVC
23:46 47.7 °F 40.5 °F 29.66 in WSW 21.9 mph 21.9 mph 76 % 0.02 in 0.0 W/m2 OVC
23:51 47.3 °F 40.5 °F 29.67 in West 20.7 mph 20.7 mph 77 % 0.00 in 0.0 W/m2 OVC
23:56 46.9 °F 40.4 °F 29.67 in West 11.5 mph 11.5 mph 78 % 0.00 in 0.0 W/m2 OVC
Bourbonnais, Illinois, USA
Compliments of Weather Underground - 3.5 mb